sensor_id;sensor_type;location;lat;lon;timestamp;P1;durP1;ratioP1;P2;durP2;ratioP2
11986;SDS011;6053;51.382;6.768;2022-07-22T00:02:04;1.27;;;1.00;;
11986;SDS011;6053;51.382;6.768;2022-07-22T00:04:33;2.25;;;1.35;;
11986;SDS011;6053;51.382;6.768;2022-07-22T00:07:01;1.63;;;1.20;;
11986;SDS011;6053;51.382;6.768;2022-07-22T00:09:30;3.40;;;1.55;;
11986;SDS011;6053;51.382;6.768;2022-07-22T00:11:58;2.78;;;1.30;;
11986;SDS011;6053;51.382;6.768;2022-07-22T00:14:28;3.43;;;1.90;;
11986;SDS011;6053;51.382;6.768;2022-07-22T00:16:57;0.80;;;0.80;;
11986;SDS011;6053;51.382;6.768;2022-07-22T00:19:25;2.80;;;1.20;;
11986;SDS011;6053;51.382;6.768;2022-07-22T00:21:54;3.45;;;1.60;;
11986;SDS011;6053;51.382;6.768;2022-07-22T00:24:22;1.38;;;1.20;;
11986;SDS011;6053;51.382;6.768;2022-07-22T00:26:51;1.23;;;1.13;;
11986;SDS011;6053;51.382;6.768;2022-07-22T00:29:19;1.67;;;1.20;;
11986;SDS011;6053;51.382;6.768;2022-07-22T00:31:49;2.42;;;1.38;;
11986;SDS011;6053;51.382;6.768;2022-07-22T00:34:17;1.90;;;1.30;;
11986;SDS011;6053;51.382;6.768;2022-07-22T00:36:46;2.35;;;1.38;;
11986;SDS011;6053;51.382;6.768;2022-07-22T00:39:14;2.05;;;1.48;;
11986;SDS011;6053;51.382;6.768;2022-07-22T00:41:43;4.00;;;1.65;;
11986;SDS011;6053;51.382;6.768;2022-07-22T00:44:11;2.45;;;1.13;;
11986;SDS011;6053;51.382;6.768;2022-07-22T00:46:40;1.65;;;1.25;;
11986;SDS011;6053;51.382;6.768;2022-07-22T00:49:09;3.67;;;1.48;;
11986;SDS011;6053;51.382;6.768;2022-07-22T00:51:38;1.60;;;1.00;;
11986;SDS011;6053;51.382;6.768;2022-07-22T00:54:07;1.33;;;1.00;;
11986;SDS011;6053;51.382;6.768;2022-07-22T00:56:36;1.75;;;1.13;;
11986;SDS011;6053;51.382;6.768;2022-07-22T00:59:06;4.47;;;1.40;;
11986;SDS011;6053;51.382;6.768;2022-07-22T01:01:37;1.90;;;1.25;;
11986;SDS011;6053;51.382;6.768;2022-07-22T01:04:06;1.48;;;1.13;;
11986;SDS011;6053;51.382;6.768;2022-07-22T01:06:36;3.88;;;1.60;;
11986;SDS011;6053;51.382;6.768;2022-07-22T01:09:04;2.10;;;1.35;;
11986;SDS011;6053;51.382;6.768;2022-07-22T01:11:33;2.78;;;1.52;;
11986;SDS011;6053;51.382;6.768;2022-07-22T01:14:01;3.55;;;1.33;;
11986;SDS011;6053;51.382;6.768;2022-07-22T01:16:30;1.50;;;1.35;;
11986;SDS011;6053;51.382;6.768;2022-07-22T01:18:58;1.30;;;1.20;;
11986;SDS011;6053;51.382;6.768;2022-07-22T01:21:28;1.60;;;1.30;;
11986;SDS011;6053;51.382;6.768;2022-07-22T01:23:57;0.80;;;0.80;;
11986;SDS011;6053;51.382;6.768;2022-07-22T01:26:26;1.73;;;1.27;;
11986;SDS011;6053;51.382;6.768;2022-07-22T01:28:54;3.05;;;1.42;;
11986;SDS011;6053;51.382;6.768;2022-07-22T01:31:23;1.98;;;1.17;;
11986;SDS011;6053;51.382;6.768;2022-07-22T01:33:52;1.00;;;1.00;;
11986;SDS011;6053;51.382;6.768;2022-07-22T01:39:45;1.17;;;1.00;;
11986;SDS011;6053;51.382;6.768;2022-07-22T01:42:13;1.38;;;1.30;;
11986;SDS011;6053;51.382;6.768;2022-07-22T01:44:42;1.27;;;1.13;;
11986;SDS011;6053;51.382;6.768;2022-07-22T01:47:11;1.23;;;1.20;;
11986;SDS011;6053;51.382;6.768;2022-07-22T01:49:39;0.80;;;0.80;;
11986;SDS011;6053;51.382;6.768;2022-07-22T01:52:07;1.38;;;1.20;;
11986;SDS011;6053;51.382;6.768;2022-07-22T01:54:37;3.73;;;1.50;;
11986;SDS011;6053;51.382;6.768;2022-07-22T01:57:05;1.23;;;1.13;;
11986;SDS011;6053;51.382;6.768;2022-07-22T01:59:34;0.90;;;0.90;;
11986;SDS011;6053;51.382;6.768;2022-07-22T02:02:02;1.40;;;1.30;;
11986;SDS011;6053;51.382;6.768;2022-07-22T02:04:30;1.63;;;1.20;;
11986;SDS011;6053;51.382;6.768;2022-07-22T02:06:59;0.80;;;0.80;;
11986;SDS011;6053;51.382;6.768;2022-07-22T02:09:27;1.40;;;1.30;;
11986;SDS011;6053;51.382;6.768;2022-07-22T02:11:57;0.90;;;0.90;;
11986;SDS011;6053;51.382;6.768;2022-07-22T02:14:25;2.35;;;1.45;;
11986;SDS011;6053;51.382;6.768;2022-07-22T02:16:54;1.20;;;1.10;;
11986;SDS011;6053;51.382;6.768;2022-07-22T02:19:22;0.90;;;0.90;;
11986;SDS011;6053;51.382;6.768;2022-07-22T02:21:51;1.60;;;1.50;;
11986;SDS011;6053;51.382;6.768;2022-07-22T02:24:19;1.30;;;0.90;;
11986;SDS011;6053;51.382;6.768;2022-07-22T02:26:48;0.98;;;0.98;;
11986;SDS011;6053;51.382;6.768;2022-07-22T02:29:17;2.43;;;1.10;;
11986;SDS011;6053;51.382;6.768;2022-07-22T02:31:46;0.85;;;0.85;;
11986;SDS011;6053;51.382;6.768;2022-07-22T02:34:14;0.87;;;0.87;;
11986;SDS011;6053;51.382;6.768;2022-07-22T02:36:43;1.55;;;0.90;;
11986;SDS011;6053;51.382;6.768;2022-07-22T02:39:12;0.80;;;0.80;;
11986;SDS011;6053;51.382;6.768;2022-07-22T02:41:41;0.90;;;0.90;;
11986;SDS011;6053;51.382;6.768;2022-07-22T02:44:09;1.00;;;1.00;;
11986;SDS011;6053;51.382;6.768;2022-07-22T02:46:39;1.27;;;1.25;;
11986;SDS011;6053;51.382;6.768;2022-07-22T02:49:07;0.90;;;0.90;;
11986;SDS011;6053;51.382;6.768;2022-07-22T02:51:36;1.27;;;1.17;;
11986;SDS011;6053;51.382;6.768;2022-07-22T02:54:04;1.02;;;1.02;;
11986;SDS011;6053;51.382;6.768;2022-07-22T02:56:33;0.90;;;0.90;;
11986;SDS011;6053;51.382;6.768;2022-07-22T02:59:01;0.70;;;0.70;;
11986;SDS011;6053;51.382;6.768;2022-07-22T03:01:30;1.63;;;1.52;;
11986;SDS011;6053;51.382;6.768;2022-07-22T03:04:00;1.25;;;1.20;;
11986;SDS011;6053;51.382;6.768;2022-07-22T03:06:28;1.43;;;1.33;;
11986;SDS011;6053;51.382;6.768;2022-07-22T03:08:57;1.90;;;1.10;;
11986;SDS011;6053;51.382;6.768;2022-07-22T03:11:26;1.00;;;1.00;;
11986;SDS011;6053;51.382;6.768;2022-07-22T03:13:54;1.15;;;1.15;;
11986;SDS011;6053;51.382;6.768;2022-07-22T03:16:22;0.90;;;0.90;;
11986;SDS011;6053;51.382;6.768;2022-07-22T03:18:51;0.83;;;0.83;;
11986;SDS011;6053;51.382;6.768;2022-07-22T03:21:21;1.10;;;1.10;;
11986;SDS011;6053;51.382;6.768;2022-07-22T03:23:50;0.75;;;0.75;;
11986;SDS011;6053;51.382;6.768;2022-07-22T03:26:20;1.00;;;0.88;;
11986;SDS011;6053;51.382;6.768;2022-07-22T03:28:49;0.98;;;0.98;;
11986;SDS011;6053;51.382;6.768;2022-07-22T03:31:18;0.73;;;0.73;;
11986;SDS011;6053;51.382;6.768;2022-07-22T03:33:47;0.90;;;0.90;;
11986;SDS011;6053;51.382;6.768;2022-07-22T03:36:15;0.90;;;0.90;;
11986;SDS011;6053;51.382;6.768;2022-07-22T03:38:45;0.80;;;0.80;;
11986;SDS011;6053;51.382;6.768;2022-07-22T03:41:13;0.80;;;0.80;;
11986;SDS011;6053;51.382;6.768;2022-07-22T03:43:42;0.77;;;0.77;;
11986;SDS011;6053;51.382;6.768;2022-07-22T03:46:10;0.80;;;0.80;;
11986;SDS011;6053;51.382;6.768;2022-07-22T03:48:38;0.80;;;0.80;;
11986;SDS011;6053;51.382;6.768;2022-07-22T03:51:07;0.80;;;0.80;;
11986;SDS011;6053;51.382;6.768;2022-07-22T03:53:35;0.90;;;0.90;;
11986;SDS011;6053;51.382;6.768;2022-07-22T03:56:06;0.95;;;0.95;;
11986;SDS011;6053;51.382;6.768;2022-07-22T03:58:35;1.00;;;1.00;;
11986;SDS011;6053;51.382;6.768;2022-07-22T04:01:03;1.30;;;1.17;;
11986;SDS011;6053;51.382;6.768;2022-07-22T04:03:32;1.10;;;1.10;;
11986;SDS011;6053;51.382;6.768;2022-07-22T04:06:00;0.90;;;0.90;;
11986;SDS011;6053;51.382;6.768;2022-07-22T04:08:29;0.80;;;0.80;;
11986;SDS011;6053;51.382;6.768;2022-07-22T04:10:57;0.93;;;0.85;;
11986;SDS011;6053;51.382;6.768;2022-07-22T04:13:27;1.45;;;1.35;;
11986;SDS011;6053;51.382;6.768;2022-07-22T04:15:55;0.80;;;0.80;;
11986;SDS011;6053;51.382;6.768;2022-07-22T04:18:24;0.90;;;0.90;;
11986;SDS011;6053;51.382;6.768;2022-07-22T04:20:52;0.95;;;0.95;;
11986;SDS011;6053;51.382;6.768;2022-07-22T04:23:24;0.90;;;0.90;;
11986;SDS011;6053;51.382;6.768;2022-07-22T04:25:52;0.90;;;0.90;;
11986;SDS011;6053;51.382;6.768;2022-07-22T04:28:21;0.80;;;0.80;;
11986;SDS011;6053;51.382;6.768;2022-07-22T04:30:50;0.90;;;0.90;;
11986;SDS011;6053;51.382;6.768;2022-07-22T04:33:19;0.90;;;0.90;;
11986;SDS011;6053;51.382;6.768;2022-07-22T04:35:47;1.15;;;1.15;;
11986;SDS011;6053;51.382;6.768;2022-07-22T04:38:16;1.20;;;1.10;;
11986;SDS011;6053;51.382;6.768;2022-07-22T04:40:44;0.90;;;0.90;;
11986;SDS011;6053;51.382;6.768;2022-07-22T04:43:19;1.00;;;0.90;;
11986;SDS011;6053;51.382;6.768;2022-07-22T04:45:48;0.82;;;0.82;;
11986;SDS011;6053;51.382;6.768;2022-07-22T04:48:18;1.92;;;1.83;;
11986;SDS011;6053;51.382;6.768;2022-07-22T04:50:46;1.13;;;1.10;;
11986;SDS011;6053;51.382;6.768;2022-07-22T04:53:15;1.08;;;1.08;;
11986;SDS011;6053;51.382;6.768;2022-07-22T04:55:43;1.00;;;1.00;;
11986;SDS011;6053;51.382;6.768;2022-07-22T04:58:11;1.60;;;1.50;;
11986;SDS011;6053;51.382;6.768;2022-07-22T05:00:42;1.10;;;1.10;;
11986;SDS011;6053;51.382;6.768;2022-07-22T05:03:12;0.93;;;0.93;;
11986;SDS011;6053;51.382;6.768;2022-07-22T05:05:41;1.13;;;1.13;;
11986;SDS011;6053;51.382;6.768;2022-07-22T05:08:09;1.10;;;1.00;;
11986;SDS011;6053;51.382;6.768;2022-07-22T05:10:38;1.10;;;1.10;;
11986;SDS011;6053;51.382;6.768;2022-07-22T05:13:06;1.20;;;1.10;;
11986;SDS011;6053;51.382;6.768;2022-07-22T05:15:34;0.90;;;0.87;;
11986;SDS011;6053;51.382;6.768;2022-07-22T05:18:03;0.93;;;0.93;;
11986;SDS011;6053;51.382;6.768;2022-07-22T05:20:33;1.10;;;1.10;;
11986;SDS011;6053;51.382;6.768;2022-07-22T05:23:03;1.10;;;1.10;;
11986;SDS011;6053;51.382;6.768;2022-07-22T05:25:31;1.17;;;1.17;;
11986;SDS011;6053;51.382;6.768;2022-07-22T05:27:59;1.08;;;1.00;;
11986;SDS011;6053;51.382;6.768;2022-07-22T05:30:28;1.00;;;1.00;;
11986;SDS011;6053;51.382;6.768;2022-07-22T05:32:56;2.70;;;1.30;;
11986;SDS011;6053;51.382;6.768;2022-07-22T05:35:25;1.70;;;1.25;;
11986;SDS011;6053;51.382;6.768;2022-07-22T05:37:55;1.48;;;1.20;;
11986;SDS011;6053;51.382;6.768;2022-07-22T05:40:23;1.33;;;1.25;;
11986;SDS011;6053;51.382;6.768;2022-07-22T05:42:51;1.70;;;1.38;;
11986;SDS011;6053;51.382;6.768;2022-07-22T05:45:20;1.10;;;1.00;;
11986;SDS011;6053;51.382;6.768;2022-07-22T05:47:48;1.20;;;1.13;;
11986;SDS011;6053;51.382;6.768;2022-07-22T05:50:17;1.58;;;1.20;;
11986;SDS011;6053;51.382;6.768;2022-07-22T05:52:46;1.75;;;1.30;;
11986;SDS011;6053;51.382;6.768;2022-07-22T05:55:15;1.40;;;1.30;;
11986;SDS011;6053;51.382;6.768;2022-07-22T05:57:44;1.20;;;1.10;;
11986;SDS011;6053;51.382;6.768;2022-07-22T06:00:12;1.52;;;1.40;;
11986;SDS011;6053;51.382;6.768;2022-07-22T06:02:42;0.85;;;0.85;;
11986;SDS011;6053;51.382;6.768;2022-07-22T06:05:10;2.93;;;1.60;;
11986;SDS011;6053;51.382;6.768;2022-07-22T06:07:58;4.67;;;1.77;;
11986;SDS011;6053;51.382;6.768;2022-07-22T06:10:28;0.80;;;0.80;;
11986;SDS011;6053;51.382;6.768;2022-07-22T06:12:57;1.27;;;1.20;;
11986;SDS011;6053;51.382;6.768;2022-07-22T06:15:25;1.55;;;1.15;;
11986;SDS011;6053;51.382;6.768;2022-07-22T06:17:53;1.70;;;1.17;;
11986;SDS011;6053;51.382;6.768;2022-07-22T06:20:24;1.23;;;1.20;;
11986;SDS011;6053;51.382;6.768;2022-07-22T06:22:52;1.90;;;1.53;;
11986;SDS011;6053;51.382;6.768;2022-07-22T06:25:20;2.63;;;1.20;;
11986;SDS011;6053;51.382;6.768;2022-07-22T06:28:08;1.70;;;1.10;;
11986;SDS011;6053;51.382;6.768;2022-07-22T06:30:37;0.90;;;0.90;;
11986;SDS011;6053;51.382;6.768;2022-07-22T06:33:06;0.85;;;0.85;;
11986;SDS011;6053;51.382;6.768;2022-07-22T06:35:37;1.30;;;1.00;;
11986;SDS011;6053;51.382;6.768;2022-07-22T06:38:06;1.80;;;1.42;;
11986;SDS011;6053;51.382;6.768;2022-07-22T06:40:52;0.88;;;0.88;;
11986;SDS011;6053;51.382;6.768;2022-07-22T06:43:22;0.80;;;0.80;;
11986;SDS011;6053;51.382;6.768;2022-07-22T06:45:50;1.00;;;1.00;;
11986;SDS011;6053;51.382;6.768;2022-07-22T06:48:19;1.30;;;1.17;;
11986;SDS011;6053;51.382;6.768;2022-07-22T06:50:48;1.20;;;1.20;;
11986;SDS011;6053;51.382;6.768;2022-07-22T06:53:19;1.40;;;1.25;;
11986;SDS011;6053;51.382;6.768;2022-07-22T06:55:47;1.20;;;1.10;;
11986;SDS011;6053;51.382;6.768;2022-07-22T06:58:16;0.90;;;0.90;;
11986;SDS011;6053;51.382;6.768;2022-07-22T07:00:45;1.00;;;1.00;;
11986;SDS011;6053;51.382;6.768;2022-07-22T07:03:14;1.58;;;1.30;;
11986;SDS011;6053;51.382;6.768;2022-07-22T07:06:00;1.60;;;0.90;;
11986;SDS011;6053;51.382;6.768;2022-07-22T07:08:29;1.33;;;1.23;;
11986;SDS011;6053;51.382;6.768;2022-07-22T07:10:57;1.58;;;1.10;;
11986;SDS011;6053;51.382;6.768;2022-07-22T07:13:27;1.83;;;1.30;;
11986;SDS011;6053;51.382;6.768;2022-07-22T07:15:57;1.50;;;1.25;;
11986;SDS011;6053;51.382;6.768;2022-07-22T07:18:26;1.10;;;1.10;;
11986;SDS011;6053;51.382;6.768;2022-07-22T07:20:54;1.33;;;1.07;;
11986;SDS011;6053;51.382;6.768;2022-07-22T07:23:23;0.98;;;0.98;;
11986;SDS011;6053;51.382;6.768;2022-07-22T07:25:52;2.77;;;1.30;;
11986;SDS011;6053;51.382;6.768;2022-07-22T07:28:20;1.17;;;1.17;;
11986;SDS011;6053;51.382;6.768;2022-07-22T07:30:49;1.98;;;1.50;;
11986;SDS011;6053;51.382;6.768;2022-07-22T07:33:19;1.00;;;1.00;;
11986;SDS011;6053;51.382;6.768;2022-07-22T07:35:48;1.27;;;1.10;;
11986;SDS011;6053;51.382;6.768;2022-07-22T07:38:16;1.10;;;1.10;;
11986;SDS011;6053;51.382;6.768;2022-07-22T07:40:46;2.17;;;1.37;;
11986;SDS011;6053;51.382;6.768;2022-07-22T07:43:15;0.90;;;0.90;;
11986;SDS011;6053;51.382;6.768;2022-07-22T07:45:43;3.00;;;1.63;;
11986;SDS011;6053;51.382;6.768;2022-07-22T07:48:12;1.67;;;1.10;;
11986;SDS011;6053;51.382;6.768;2022-07-22T07:50:42;0.93;;;0.90;;
11986;SDS011;6053;51.382;6.768;2022-07-22T07:53:13;3.97;;;1.75;;
11986;SDS011;6053;51.382;6.768;2022-07-22T07:55:45;2.00;;;1.40;;
11986;SDS011;6053;51.382;6.768;2022-07-22T07:58:14;1.87;;;1.40;;
11986;SDS011;6053;51.382;6.768;2022-07-22T08:00:42;1.92;;;1.13;;
11986;SDS011;6053;51.382;6.768;2022-07-22T08:03:11;0.80;;;0.80;;
11986;SDS011;6053;51.382;6.768;2022-07-22T08:05:39;1.40;;;1.30;;
11986;SDS011;6053;51.382;6.768;2022-07-22T08:08:10;1.30;;;1.20;;
11986;SDS011;6053;51.382;6.768;2022-07-22T08:10:40;3.53;;;1.80;;
11986;SDS011;6053;51.382;6.768;2022-07-22T08:13:26;1.70;;;1.60;;
11986;SDS011;6053;51.382;6.768;2022-07-22T08:15:55;1.73;;;1.50;;
11986;SDS011;6053;51.382;6.768;2022-07-22T08:18:24;2.08;;;1.60;;
11986;SDS011;6053;51.382;6.768;2022-07-22T08:20:54;2.43;;;1.37;;
11986;SDS011;6053;51.382;6.768;2022-07-22T08:23:26;1.05;;;1.05;;
11986;SDS011;6053;51.382;6.768;2022-07-22T08:25:54;2.45;;;1.35;;
11986;SDS011;6053;51.382;6.768;2022-07-22T08:28:23;3.03;;;1.60;;
11986;SDS011;6053;51.382;6.768;2022-07-22T08:30:52;1.13;;;1.13;;
11986;SDS011;6053;51.382;6.768;2022-07-22T08:33:20;1.80;;;1.55;;
11986;SDS011;6053;51.382;6.768;2022-07-22T08:35:48;1.83;;;1.30;;
11986;SDS011;6053;51.382;6.768;2022-07-22T08:38:18;1.23;;;1.15;;
11986;SDS011;6053;51.382;6.768;2022-07-22T08:40:47;1.58;;;1.27;;
11986;SDS011;6053;51.382;6.768;2022-07-22T08:43:15;1.30;;;1.20;;
11986;SDS011;6053;51.382;6.768;2022-07-22T08:45:44;2.95;;;1.77;;
11986;SDS011;6053;51.382;6.768;2022-07-22T08:48:14;1.10;;;1.10;;
11986;SDS011;6053;51.382;6.768;2022-07-22T08:50:43;0.98;;;0.98;;
11986;SDS011;6053;51.382;6.768;2022-07-22T08:53:12;1.73;;;1.30;;
11986;SDS011;6053;51.382;6.768;2022-07-22T08:55:43;0.93;;;0.93;;
11986;SDS011;6053;51.382;6.768;2022-07-22T08:58:13;2.42;;;1.20;;
11986;SDS011;6053;51.382;6.768;2022-07-22T09:00:43;2.55;;;1.30;;
11986;SDS011;6053;51.382;6.768;2022-07-22T09:03:18;2.83;;;1.70;;
11986;SDS011;6053;51.382;6.768;2022-07-22T09:05:50;1.52;;;1.42;;
11986;SDS011;6053;51.382;6.768;2022-07-22T09:08:19;1.00;;;1.00;;
11986;SDS011;6053;51.382;6.768;2022-07-22T09:10:49;3.70;;;1.80;;
11986;SDS011;6053;51.382;6.768;2022-07-22T09:13:18;3.08;;;2.30;;
11986;SDS011;6053;51.382;6.768;2022-07-22T09:15:48;1.63;;;1.50;;
11986;SDS011;6053;51.382;6.768;2022-07-22T09:18:18;3.55;;;1.90;;
11986;SDS011;6053;51.382;6.768;2022-07-22T09:20:47;1.60;;;1.50;;
11986;SDS011;6053;51.382;6.768;2022-07-22T09:23:16;3.05;;;2.10;;
11986;SDS011;6053;51.382;6.768;2022-07-22T09:25:50;1.90;;;1.40;;
11986;SDS011;6053;51.382;6.768;2022-07-22T09:28:19;1.43;;;1.37;;
11986;SDS011;6053;51.382;6.768;2022-07-22T09:30:53;3.08;;;2.10;;
11986;SDS011;6053;51.382;6.768;2022-07-22T09:33:24;1.57;;;1.47;;
11986;SDS011;6053;51.382;6.768;2022-07-22T09:36:00;1.52;;;1.42;;
11986;SDS011;6053;51.382;6.768;2022-07-22T09:38:31;2.80;;;2.17;;
11986;SDS011;6053;51.382;6.768;2022-07-22T09:41:03;2.33;;;1.67;;
11986;SDS011;6053;51.382;6.768;2022-07-22T09:43:34;2.30;;;2.10;;
11986;SDS011;6053;51.382;6.768;2022-07-22T09:46:03;1.95;;;1.70;;
11986;SDS011;6053;51.382;6.768;2022-07-22T09:48:32;1.67;;;1.50;;
11986;SDS011;6053;51.382;6.768;2022-07-22T09:51:01;3.13;;;2.27;;
11986;SDS011;6053;51.382;6.768;2022-07-22T09:53:31;2.33;;;1.95;;
11986;SDS011;6053;51.382;6.768;2022-07-22T09:56:01;2.22;;;1.70;;
11986;SDS011;6053;51.382;6.768;2022-07-22T09:58:33;2.75;;;2.38;;
11986;SDS011;6053;51.382;6.768;2022-07-22T10:01:03;3.25;;;2.40;;
11986;SDS011;6053;51.382;6.768;2022-07-22T10:03:34;2.67;;;2.20;;
11986;SDS011;6053;51.382;6.768;2022-07-22T10:06:05;1.77;;;1.67;;
11986;SDS011;6053;51.382;6.768;2022-07-22T10:08:34;2.80;;;2.55;;
11986;SDS011;6053;51.382;6.768;2022-07-22T10:11:05;1.92;;;1.80;;
11986;SDS011;6053;51.382;6.768;2022-07-22T10:13:34;1.93;;;1.83;;
11986;SDS011;6053;51.382;6.768;2022-07-22T10:16:07;2.90;;;2.60;;
11986;SDS011;6053;51.382;6.768;2022-07-22T10:18:36;4.82;;;3.05;;
11986;SDS011;6053;51.382;6.768;2022-07-22T10:21:06;4.27;;;2.77;;
11986;SDS011;6053;51.382;6.768;2022-07-22T10:23:37;1.65;;;1.63;;
11986;SDS011;6053;51.382;6.768;2022-07-22T10:26:47;2.40;;;2.20;;
11986;SDS011;6053;51.382;6.768;2022-07-22T10:29:24;2.63;;;2.10;;
11986;SDS011;6053;51.382;6.768;2022-07-22T10:37:53;3.17;;;2.75;;
11986;SDS011;6053;51.382;6.768;2022-07-22T10:40:25;4.25;;;3.40;;
11986;SDS011;6053;51.382;6.768;2022-07-22T10:43:04;3.75;;;2.95;;
11986;SDS011;6053;51.382;6.768;2022-07-22T10:45:36;3.25;;;2.95;;
11986;SDS011;6053;51.382;6.768;2022-07-22T10:48:10;5.30;;;3.50;;
11986;SDS011;6053;51.382;6.768;2022-07-22T10:50:42;3.70;;;3.13;;
11986;SDS011;6053;51.382;6.768;2022-07-22T10:53:16;3.40;;;3.10;;
11986;SDS011;6053;51.382;6.768;2022-07-22T10:55:58;3.40;;;2.83;;
11986;SDS011;6053;51.382;6.768;2022-07-22T10:58:50;3.57;;;3.20;;
11986;SDS011;6053;51.382;6.768;2022-07-22T11:01:22;3.60;;;2.85;;
11986;SDS011;6053;51.382;6.768;2022-07-22T11:03:55;2.60;;;2.40;;
11986;SDS011;6053;51.382;6.768;2022-07-22T11:06:43;2.85;;;2.65;;
11986;SDS011;6053;51.382;6.768;2022-07-22T11:09:14;2.50;;;2.23;;
11986;SDS011;6053;51.382;6.768;2022-07-22T11:11:45;3.25;;;2.78;;
11986;SDS011;6053;51.382;6.768;2022-07-22T11:14:19;3.40;;;2.60;;
11986;SDS011;6053;51.382;6.768;2022-07-22T11:16:53;1.40;;;1.40;;
11986;SDS011;6053;51.382;6.768;2022-07-22T11:19:24;2.30;;;2.20;;
11986;SDS011;6053;51.382;6.768;2022-07-22T11:21:55;3.00;;;2.33;;
11986;SDS011;6053;51.382;6.768;2022-07-22T11:24:28;2.85;;;2.60;;
11986;SDS011;6053;51.382;6.768;2022-07-22T11:26:58;1.58;;;1.45;;
11986;SDS011;6053;51.382;6.768;2022-07-22T11:29:32;4.50;;;2.67;;
11986;SDS011;6053;51.382;6.768;2022-07-22T11:32:04;1.90;;;1.80;;
11986;SDS011;6053;51.382;6.768;2022-07-22T11:34:35;3.60;;;2.70;;
11986;SDS011;6053;51.382;6.768;2022-07-22T11:37:09;3.85;;;2.63;;
11986;SDS011;6053;51.382;6.768;2022-07-22T11:39:37;5.60;;;3.33;;
11986;SDS011;6053;51.382;6.768;2022-07-22T11:42:07;3.22;;;2.42;;
11986;SDS011;6053;51.382;6.768;2022-07-22T11:44:37;4.25;;;3.22;;
11986;SDS011;6053;51.382;6.768;2022-07-22T11:47:07;2.55;;;2.35;;
11986;SDS011;6053;51.382;6.768;2022-07-22T11:49:36;3.20;;;2.92;;
11986;SDS011;6053;51.382;6.768;2022-07-22T11:52:08;2.05;;;1.95;;
11986;SDS011;6053;51.382;6.768;2022-07-22T11:54:39;4.57;;;3.00;;
11986;SDS011;6053;51.382;6.768;2022-07-22T11:57:09;3.63;;;2.83;;
11986;SDS011;6053;51.382;6.768;2022-07-22T11:59:42;4.07;;;3.43;;
11986;SDS011;6053;51.382;6.768;2022-07-22T12:02:11;4.57;;;3.22;;
11986;SDS011;6053;51.382;6.768;2022-07-22T12:04:41;4.93;;;2.97;;
11986;SDS011;6053;51.382;6.768;2022-07-22T12:07:11;2.45;;;2.25;;
11986;SDS011;6053;51.382;6.768;2022-07-22T12:09:40;3.92;;;2.78;;
11986;SDS011;6053;51.382;6.768;2022-07-22T12:12:09;4.03;;;2.63;;
11986;SDS011;6053;51.382;6.768;2022-07-22T12:14:43;2.75;;;2.40;;
11986;SDS011;6053;51.382;6.768;2022-07-22T12:17:15;3.10;;;2.42;;
11986;SDS011;6053;51.382;6.768;2022-07-22T12:19:43;3.13;;;2.70;;
11986;SDS011;6053;51.382;6.768;2022-07-22T12:22:12;3.13;;;2.78;;
11986;SDS011;6053;51.382;6.768;2022-07-22T12:24:56;2.93;;;2.60;;
11986;SDS011;6053;51.382;6.768;2022-07-22T12:27:28;3.50;;;2.40;;
11986;SDS011;6053;51.382;6.768;2022-07-22T12:29:59;2.20;;;2.00;;
11986;SDS011;6053;51.382;6.768;2022-07-22T12:32:28;4.20;;;2.23;;
11986;SDS011;6053;51.382;6.768;2022-07-22T12:34:58;1.75;;;1.65;;
11986;SDS011;6053;51.382;6.768;2022-07-22T12:37:29;3.53;;;2.63;;
11986;SDS011;6053;51.382;6.768;2022-07-22T12:39:59;3.28;;;2.60;;
11986;SDS011;6053;51.382;6.768;2022-07-22T12:42:31;1.43;;;1.33;;
11986;SDS011;6053;51.382;6.768;2022-07-22T12:45:06;3.07;;;2.57;;
11986;SDS011;6053;51.382;6.768;2022-07-22T12:47:41;3.60;;;2.40;;
11986;SDS011;6053;51.382;6.768;2022-07-22T12:50:15;2.90;;;2.60;;
11986;SDS011;6053;51.382;6.768;2022-07-22T12:52:49;2.30;;;2.10;;
11986;SDS011;6053;51.382;6.768;2022-07-22T12:55:41;1.80;;;1.70;;
11986;SDS011;6053;51.382;6.768;2022-07-22T12:58:12;2.60;;;1.77;;
11986;SDS011;6053;51.382;6.768;2022-07-22T13:00:45;3.45;;;1.90;;
11986;SDS011;6053;51.382;6.768;2022-07-22T13:03:16;2.10;;;1.90;;
11986;SDS011;6053;51.382;6.768;2022-07-22T13:05:46;1.85;;;1.70;;
11986;SDS011;6053;51.382;6.768;2022-07-22T13:08:15;2.23;;;1.77;;
11986;SDS011;6053;51.382;6.768;2022-07-22T13:10:45;1.20;;;1.10;;
11986;SDS011;6053;51.382;6.768;2022-07-22T13:13:13;1.45;;;1.17;;
11986;SDS011;6053;51.382;6.768;2022-07-22T13:15:42;1.80;;;1.67;;
11986;SDS011;6053;51.382;6.768;2022-07-22T13:18:12;1.20;;;1.08;;
11986;SDS011;6053;51.382;6.768;2022-07-22T13:20:40;1.60;;;1.05;;
11986;SDS011;6053;51.382;6.768;2022-07-22T13:23:09;2.08;;;1.80;;
11986;SDS011;6053;51.382;6.768;2022-07-22T13:25:37;3.80;;;2.00;;
11986;SDS011;6053;51.382;6.768;2022-07-22T13:28:06;1.80;;;1.08;;
11986;SDS011;6053;51.382;6.768;2022-07-22T13:30:34;1.48;;;1.20;;
11986;SDS011;6053;51.382;6.768;2022-07-22T13:33:03;2.95;;;1.40;;
11986;SDS011;6053;51.382;6.768;2022-07-22T13:35:33;1.70;;;1.58;;
11986;SDS011;6053;51.382;6.768;2022-07-22T13:38:02;2.80;;;2.00;;
11986;SDS011;6053;51.382;6.768;2022-07-22T13:40:31;2.17;;;1.50;;
11986;SDS011;6053;51.382;6.768;2022-07-22T13:42:59;2.78;;;2.00;;
11986;SDS011;6053;51.382;6.768;2022-07-22T13:45:27;1.98;;;1.50;;
11986;SDS011;6053;51.382;6.768;2022-07-22T13:47:56;1.45;;;1.35;;
11986;SDS011;6053;51.382;6.768;2022-07-22T13:50:25;3.30;;;1.50;;
11986;SDS011;6053;51.382;6.768;2022-07-22T13:52:55;2.75;;;1.70;;
11986;SDS011;6053;51.382;6.768;2022-07-22T13:55:23;2.08;;;1.60;;
11986;SDS011;6053;51.382;6.768;2022-07-22T13:57:51;1.70;;;1.60;;
11986;SDS011;6053;51.382;6.768;2022-07-22T14:00:21;2.45;;;1.95;;
11986;SDS011;6053;51.382;6.768;2022-07-22T14:02:49;2.03;;;1.83;;
11986;SDS011;6053;51.382;6.768;2022-07-22T14:05:18;2.38;;;1.77;;
11986;SDS011;6053;51.382;6.768;2022-07-22T14:07:47;2.40;;;2.20;;
11986;SDS011;6053;51.382;6.768;2022-07-22T14:10:16;1.13;;;1.02;;
11986;SDS011;6053;51.382;6.768;2022-07-22T14:12:45;2.80;;;2.00;;
11986;SDS011;6053;51.382;6.768;2022-07-22T14:15:13;1.98;;;1.70;;
11986;SDS011;6053;51.382;6.768;2022-07-22T14:17:42;1.98;;;1.88;;
11986;SDS011;6053;51.382;6.768;2022-07-22T14:20:11;3.33;;;1.88;;
11986;SDS011;6053;51.382;6.768;2022-07-22T14:22:39;3.80;;;2.63;;
11986;SDS011;6053;51.382;6.768;2022-07-22T14:25:08;3.00;;;2.00;;
11986;SDS011;6053;51.382;6.768;2022-07-22T14:27:38;2.95;;;2.55;;
11986;SDS011;6053;51.382;6.768;2022-07-22T14:30:06;3.42;;;2.72;;
11986;SDS011;6053;51.382;6.768;2022-07-22T14:32:36;4.13;;;2.80;;
11986;SDS011;6053;51.382;6.768;2022-07-22T14:35:05;3.30;;;2.90;;
11986;SDS011;6053;51.382;6.768;2022-07-22T14:37:34;3.22;;;2.28;;
11986;SDS011;6053;51.382;6.768;2022-07-22T14:40:02;4.87;;;2.60;;
11986;SDS011;6053;51.382;6.768;2022-07-22T14:42:32;3.25;;;2.60;;
11986;SDS011;6053;51.382;6.768;2022-07-22T14:45:02;2.60;;;2.40;;
11986;SDS011;6053;51.382;6.768;2022-07-22T14:47:35;2.65;;;2.08;;
11986;SDS011;6053;51.382;6.768;2022-07-22T14:50:04;4.38;;;1.80;;
11986;SDS011;6053;51.382;6.768;2022-07-22T14:52:33;1.88;;;1.77;;
11986;SDS011;6053;51.382;6.768;2022-07-22T14:55:02;2.28;;;1.80;;
11986;SDS011;6053;51.382;6.768;2022-07-22T14:57:31;2.58;;;2.38;;
11986;SDS011;6053;51.382;6.768;2022-07-22T14:59:59;3.53;;;2.80;;
11986;SDS011;6053;51.382;6.768;2022-07-22T15:02:30;3.50;;;2.28;;
11986;SDS011;6053;51.382;6.768;2022-07-22T15:04:58;3.08;;;2.40;;
11986;SDS011;6053;51.382;6.768;2022-07-22T15:07:26;2.33;;;2.13;;
11986;SDS011;6053;51.382;6.768;2022-07-22T15:09:55;3.53;;;2.30;;
11986;SDS011;6053;51.382;6.768;2022-07-22T15:12:23;4.85;;;2.03;;
11986;SDS011;6053;51.382;6.768;2022-07-22T15:15:13;2.00;;;1.60;;
11986;SDS011;6053;51.382;6.768;2022-07-22T15:17:41;1.65;;;1.40;;
11986;SDS011;6053;51.382;6.768;2022-07-22T15:20:12;0.93;;;0.93;;
11986;SDS011;6053;51.382;6.768;2022-07-22T15:22:41;2.72;;;1.73;;
11986;SDS011;6053;51.382;6.768;2022-07-22T15:25:09;1.45;;;1.38;;
11986;SDS011;6053;51.382;6.768;2022-07-22T15:27:38;3.13;;;2.05;;